Time;durP1;ratioP1;P1;durP2;ratioP2;P2;SDS_P1;SDS_P2;PMS_P1;PMS_P2;Temp;Humidity;BMP_temperature;BMP_pressure;BME280_temperature;BME280_humidity;BME280_pressure;Samples;Min_cycle;Max_cycle;Signal;HPM_P1;HPM_P2
2021/05/17 00:00:57;;;;;;;2.43;0.30;;;13.20;72.10;;;;;;5023827;28;20037;-75
2021/05/17 00:03:25;;;;;;;0.30;0.20;;;13.20;72.10;;;;;;5023070;28;20032;-75
2021/05/17 00:05:52;;;;;;;0.80;0.33;;;13.20;71.80;;;;;;5034609;28;20124;-75
2021/05/17 00:08:17;;;;;;;1.00;0.40;;;13.20;71.90;;;;;;5030147;28;20030;-75
2021/05/17 00:10:43;;;;;;;1.07;0.30;;;13.20;71.80;;;;;;5024169;28;20383;-75
2021/05/17 00:13:09;;;;;;;1.10;0.50;;;13.20;71.90;;;;;;5027359;28;20025;-75
2021/05/17 00:15:38;;;;;;;0.83;0.40;;;13.20;71.90;;;;;;5026578;28;20080;-75
2021/05/17 00:18:04;;;;;;;0.50;0.30;;;13.20;71.90;;;;;;5014105;28;20022;-75
2021/05/17 00:20:30;;;;;;;1.10;0.53;;;13.20;72.00;;;;;;5015937;28;20025;-75
2021/05/17 00:22:56;;;;;;;3.27;0.80;;;13.20;72.20;;;;;;5037831;28;20096;-75
2021/05/17 00:25:23;;;;;;;1.60;1.10;;;13.20;72.30;;;;;;5030288;28;20893;-75
2021/05/17 00:27:54;;;;;;;3.13;1.57;;;13.20;72.50;;;;;;5040572;28;20109;-75
2021/05/17 00:30:22;;;;;;;7.67;1.20;;;13.20;72.50;;;;;;5034729;28;20124;-75
2021/05/17 00:32:48;;;;;;;1.27;1.17;;;13.20;72.50;;;;;;5030679;28;20399;-75
2021/05/17 00:35:14;;;;;;;5.97;1.40;;;13.20;72.40;;;;;;5030113;28;20055;-75
2021/05/17 00:37:41;;;;;;;2.73;1.37;;;13.10;72.50;;;;;;5031569;28;20380;-75
2021/05/17 00:40:08;;;;;;;2.60;1.87;;;13.10;72.70;;;;;;5027243;28;20028;-75
2021/05/17 00:42:35;;;;;;;3.10;1.70;;;13.20;72.70;;;;;;5023885;28;20386;-75
2021/05/17 00:45:03;;;;;;;3.10;1.60;;;13.20;72.70;;;;;;5027388;28;20029;-75
2021/05/17 00:47:31;;;;;;;1.60;1.50;;;13.10;72.70;;;;;;5015400;28;20550;-75
2021/05/17 00:49:57;;;;;;;2.07;1.40;;;13.10;72.90;;;;;;5025796;28;20497;-75
2021/05/17 00:52:24;;;;;;;2.53;1.60;;;13.20;73.00;;;;;;5028523;28;20037;-75
2021/05/17 00:54:50;;;;;;;4.73;1.63;;;13.20;72.90;;;;;;5029920;28;20024;-75
2021/05/17 00:57:17;;;;;;;3.50;1.20;;;13.20;72.80;;;;;;5032554;28;20022;-75
2021/05/17 00:59:43;;;;;;;1.47;1.00;;;13.20;72.60;;;;;;5024949;28;20052;-76
2021/05/17 01:02:09;;;;;;;2.27;1.20;;;13.20;72.70;;;;;;5027657;28;20045;-75
2021/05/17 01:04:35;;;;;;;2.07;1.17;;;13.10;72.70;;;;;;5030873;28;20033;-76
2021/05/17 01:07:02;;;;;;;2.00;0.80;;;13.20;72.70;;;;;;5027706;28;20074;-75
2021/05/17 01:09:30;;;;;;;1.63;0.73;;;13.20;72.60;;;;;;5030704;28;20028;-75
2021/05/17 01:11:58;;;;;;;2.23;0.77;;;13.20;72.50;;;;;;5029791;28;20482;-76
2021/05/17 01:14:24;;;;;;;2.40;0.70;;;13.20;72.40;;;;;;5023516;28;20132;-75
2021/05/17 01:16:53;;;;;;;5.10;1.30;;;13.20;72.50;;;;;;5016636;28;20159;-75
2021/05/17 01:19:32;;;;;;;1.57;0.80;;;13.20;72.50;;;;;;5024766;28;20022;-75
2021/05/17 01:22:09;;;;;;;1.13;0.80;;;13.10;72.60;;;;;;5021693;28;20078;-76
2021/05/17 01:24:37;;;;;;;1.37;0.80;;;13.20;72.80;;;;;;5030955;28;20056;-76
2021/05/17 01:27:03;;;;;;;1.63;1.00;;;13.20;72.70;;;;;;5022333;28;20026;-76
2021/05/17 01:29:30;;;;;;;4.60;1.10;;;13.10;72.60;;;;;;5033055;28;20145;-75
2021/05/17 01:31:57;;;;;;;1.37;1.00;;;13.10;72.70;;;;;;5036612;28;20037;-75
2021/05/17 01:34:24;;;;;;;1.63;0.80;;;13.00;72.90;;;;;;5018670;28;20723;-75
2021/05/17 01:36:51;;;;;;;1.20;0.70;;;13.10;72.90;;;;;;5033280;28;20017;-75
2021/05/17 01:39:22;;;;;;;2.40;0.70;;;13.00;72.90;;;;;;5030882;28;20175;-74
2021/05/17 01:41:51;;;;;;;1.27;0.90;;;13.00;73.10;;;;;;5018165;28;20032;-75
2021/05/17 01:44:23;;;;;;;22.07;13.50;;;13.00;73.20;;;;;;5029418;28;20394;-75
2021/05/17 01:46:50;;;;;;;23.17;14.55;;;13.00;73.30;;;;;;5028450;28;20034;-76
2021/05/17 01:49:17;;;;;;;18.43;11.20;;;13.10;73.30;;;;;;5023306;28;20477;-77
2021/05/17 01:51:50;;;;;;;4.00;2.83;;;13.10;73.30;;;;;;5018677;28;20033;-75
2021/05/17 01:54:17;;;;;;;1.70;1.50;;;13.00;73.40;;;;;;5041952;28;20036;-75
2021/05/17 01:56:44;;;;;;;3.53;2.20;;;13.00;73.30;;;;;;5029144;28;20033;-75
2021/05/17 01:59:11;;;;;;;2.67;2.07;;;13.00;73.40;;;;;;5019247;28;20029;-75
2021/05/17 02:01:37;;;;;;;4.63;2.50;;;13.00;73.50;;;;;;5024073;28;20975;-76
2021/05/17 02:04:05;;;;;;;3.27;2.10;;;13.00;73.50;;;;;;5019527;28;20041;-76
2021/05/17 02:06:30;;;;;;;2.10;1.90;;;13.00;73.60;;;;;;5027596;28;20033;-76
2021/05/17 02:08:56;;;;;;;2.03;1.60;;;13.00;73.50;;;;;;5029687;28;20048;-76
2021/05/17 02:11:24;;;;;;;1.83;1.63;;;12.90;73.50;;;;;;5021195;28;20364;-75
2021/05/17 02:13:51;;;;;;;3.93;2.50;;;13.00;73.50;;;;;;5026766;28;20040;-76
2021/05/17 02:16:18;;;;;;;2.70;2.27;;;13.00;73.50;;;;;;5028495;28;20030;-76
2021/05/17 02:18:46;;;;;;;2.23;1.87;;;13.00;73.70;;;;;;5029600;28;20036;-76
2021/05/17 02:21:14;;;;;;;5.30;2.10;;;12.90;73.70;;;;;;5012579;28;20121;-76
2021/05/17 02:23:40;;;;;;;2.37;2.17;;;12.90;73.80;;;;;;5029958;28;20443;-76
2021/05/17 02:26:07;;;;;;;4.10;3.00;;;12.90;73.90;;;;;;5027825;28;20116;-76
2021/05/17 02:28:36;;;;;;;3.33;2.93;;;13.00;74.00;;;;;;5026210;28;20057;-76
2021/05/17 02:31:03;;;;;;;4.97;3.33;;;12.90;74.00;;;;;;5030915;28;20045;-76
2021/05/17 02:33:30;;;;;;;4.00;3.60;;;12.90;74.10;;;;;;5026821;28;20037;-76
2021/05/17 02:35:56;;;;;;;3.90;3.60;;;12.90;74.10;;;;;;5026605;28;20030;-76
2021/05/17 02:38:22;;;;;;;5.77;4.40;;;12.80;74.00;;;;;;5029974;28;20052;-76
2021/05/17 02:40:50;;;;;;;4.40;4.00;;;12.90;74.20;;;;;;5027241;28;20021;-76
2021/05/17 02:43:15;;;;;;;5.30;4.80;;;12.90;74.20;;;;;;5028554;28;20083;-76
2021/05/17 02:45:41;;;;;;;6.23;5.63;;;12.90;74.10;;;;;;5027790;28;20114;-76
2021/05/17 02:48:09;;;;;;;6.67;5.97;;;12.90;74.10;;;;;;5027391;28;20513;-76
2021/05/17 02:50:38;;;;;;;8.13;6.10;;;12.90;74.10;;;;;;5029171;28;20075;-76
2021/05/17 02:53:29;;;;;;;7.43;6.27;;;12.90;74.10;;;;;;5027761;28;20030;-76
2021/05/17 02:55:56;;;;;;;7.63;6.87;;;12.90;74.00;;;;;;5027653;28;20030;-76
2021/05/17 02:58:24;;;;;;;8.70;7.83;;;12.90;74.10;;;;;;5028503;28;20036;-76
2021/05/17 03:01:00;;;;;;;8.17;7.37;;;12.90;74.20;;;;;;5033631;28;20427;-76
2021/05/17 03:03:29;;;;;;;8.27;7.30;;;12.90;74.20;;;;;;5047806;28;20071;-76
2021/05/17 03:06:06;;;;;;;5.10;4.70;;;12.80;74.00;;;;;;5030323;28;20449;-76
2021/05/17 03:08:55;;;;;;;6.50;5.90;;;12.70;74.40;;;;;;5015458;28;20034;-76
2021/05/17 03:11:22;;;;;;;3.43;3.13;;;12.70;74.40;;;;;;5015629;28;20041;-76
2021/05/17 03:13:50;;;;;;;2.40;1.83;;;12.80;74.30;;;;;;5032356;28;20383;-76
2021/05/17 03:16:19;;;;;;;3.03;2.40;;;12.80;74.10;;;;;;5021938;28;20037;-76
2021/05/17 03:18:45;;;;;;;5.63;2.97;;;12.80;73.90;;;;;;5026303;28;20487;-76
2021/05/17 03:21:11;;;;;;;5.27;2.97;;;12.80;73.80;;;;;;5024228;28;20033;-76
2021/05/17 03:23:37;;;;;;;12.17;4.70;;;12.80;74.00;;;;;;5017064;28;20052;-76
2021/05/17 03:26:03;;;;;;;6.60;5.90;;;12.80;74.10;;;;;;5029076;28;20168;-77
2021/05/17 03:28:29;;;;;;;7.50;5.87;;;12.80;74.20;;;;;;5025352;28;20041;-76
2021/05/17 03:30:55;;;;;;;7.60;6.27;;;12.80;74.30;;;;;;5027377;28;20052;-76
2021/05/17 03:33:20;;;;;;;7.30;6.37;;;12.80;74.40;;;;;;5033589;28;20121;-76
2021/05/17 03:35:46;;;;;;;10.93;7.70;;;12.80;74.40;;;;;;5030792;28;20374;-76
2021/05/17 03:38:12;;;;;;;7.90;7.10;;;12.80;74.40;;;;;;5025154;28;20034;-77
2021/05/17 03:40:37;;;;;;;7.97;6.70;;;12.80;74.50;;;;;;5030471;28;20112;-76
2021/05/17 03:43:03;;;;;;;9.43;6.97;;;12.80;74.50;;;;;;5023324;28;20120;-76
2021/05/17 03:45:29;;;;;;;8.37;7.03;;;12.80;74.50;;;;;;5031339;28;20087;-76
2021/05/17 03:47:54;;;;;;;8.97;8.07;;;12.80;74.50;;;;;;5024756;28;20088;-76
2021/05/17 03:50:20;;;;;;;7.67;6.87;;;12.80;74.40;;;;;;5031107;28;20036;-77
2021/05/17 03:52:46;;;;;;;6.43;5.73;;;12.80;74.40;;;;;;5023596;28;20036;-76
2021/05/17 03:55:12;;;;;;;7.83;6.13;;;12.80;74.30;;;;;;5021097;28;20034;-76
2021/05/17 03:57:38;;;;;;;8.63;6.57;;;12.80;74.20;;;;;;5026010;28;20026;-76
2021/05/17 04:00:08;;;;;;;7.53;6.83;;;12.80;74.10;;;;;;5021887;28;20109;-76
2021/05/17 04:02:34;;;;;;;6.87;6.27;;;12.80;74.00;;;;;;5023283;28;20509;-76
2021/05/17 04:15:22;;;;;;;8.53;7.00;;;12.70;74.30;;;;;;5024581;28;20040;-78
2021/05/17 04:17:48;;;;;;;7.03;6.30;;;12.70;74.20;;;;;;5026434;28;20029;-77
2021/05/17 04:20:14;;;;;;;6.90;6.00;;;12.70;73.90;;;;;;5025460;28;20031;-76
2021/05/17 04:22:41;;;;;;;6.33;5.73;;;12.70;74.00;;;;;;5028733;28;20037;-76
2021/05/17 04:25:11;;;;;;;8.53;7.30;;;12.70;74.00;;;;;;5026085;28;20029;-76
2021/05/17 04:27:37;;;;;;;8.37;7.67;;;12.70;74.10;;;;;;5022248;28;20478;-76
2021/05/17 04:30:05;;;;;;;5.53;5.03;;;12.70;74.10;;;;;;5027267;28;20429;-76
2021/05/17 04:32:31;;;;;;;5.97;5.37;;;12.70;74.20;;;;;;5022630;28;20045;-76
2021/05/17 04:34:57;;;;;;;6.50;5.27;;;12.70;74.00;;;;;;5024105;28;20350;-76
2021/05/17 04:37:22;;;;;;;5.10;4.50;;;12.60;74.00;;;;;;5027272;28;20052;-76
2021/05/17 04:39:48;;;;;;;7.43;5.53;;;12.70;74.00;;;;;;5023357;28;20429;-76
2021/05/17 04:42:14;;;;;;;5.80;4.10;;;12.60;74.00;;;;;;5031109;28;20033;-76
2021/05/17 04:44:40;;;;;;;4.57;2.93;;;12.70;74.20;;;;;;5026145;28;20132;-76
2021/05/17 04:47:05;;;;;;;7.77;3.83;;;12.70;74.10;;;;;;5030544;28;20064;-77
2021/05/17 04:49:31;;;;;;;4.07;3.10;;;12.70;74.00;;;;;;5027769;28;20070;-76
2021/05/17 04:51:57;;;;;;;5.37;4.33;;;12.70;74.00;;;;;;5020854;28;20048;-76
2021/05/17 04:54:22;;;;;;;5.80;5.20;;;12.70;74.00;;;;;;5017614;28;20124;-77
2021/05/17 04:56:48;;;;;;;6.43;5.70;;;12.70;73.80;;;;;;5019318;28;20037;-79
2021/05/17 04:59:14;;;;;;;9.63;6.60;;;12.70;73.80;;;;;;5029807;28;20033;-76
2021/05/17 05:01:39;;;;;;;9.03;6.30;;;12.80;74.00;;;;;;5029224;28;20032;-76
2021/05/17 05:04:05;;;;;;;6.90;5.50;;;12.70;74.00;;;;;;5030766;28;20084;-76
2021/05/17 05:06:31;;;;;;;10.93;6.93;;;12.70;74.40;;;;;;5029585;28;20033;-77
2021/05/17 05:08:57;;;;;;;8.43;5.80;;;12.70;74.40;;;;;;5029210;28;20036;-76
2021/05/17 05:11:23;;;;;;;8.33;6.47;;;12.70;74.50;;;;;;5027727;28;20038;-76
2021/05/17 05:13:49;;;;;;;7.67;6.93;;;12.70;74.40;;;;;;5020966;28;20029;-77
2021/05/17 05:16:16;;;;;;;10.90;8.13;;;12.70;74.40;;;;;;5028682;28;20083;-76
2021/05/17 05:18:41;;;;;;;9.37;7.07;;;12.80;74.60;;;;;;5025158;28;20030;-77
2021/05/17 05:21:07;;;;;;;8.03;7.23;;;12.80;74.60;;;;;;5020347;28;20140;-76
2021/05/17 05:23:33;;;;;;;8.60;7.70;;;12.80;74.60;;;;;;5030245;28;20056;-76
2021/05/17 05:28:33;;;;;;;8.97;8.10;;;12.90;74.70;;;;;;5029185;28;20033;-78
2021/05/17 05:31:04;;;;;;;9.50;8.30;;;12.90;74.60;;;;;;5027264;28;20049;-76
2021/05/17 05:33:30;;;;;;;10.50;7.83;;;12.90;74.50;;;;;;5027829;28;20120;-76
2021/05/17 05:35:56;;;;;;;10.97;8.80;;;12.90;74.40;;;;;;5025844;28;20105;-76
2021/05/17 05:38:22;;;;;;;8.10;7.10;;;13.00;74.40;;;;;;5025508;28;20025;-76
2021/05/17 05:40:48;;;;;;;7.37;6.30;;;13.00;74.30;;;;;;5021712;28;20402;-77
2021/05/17 05:43:13;;;;;;;7.50;6.70;;;13.10;74.50;;;;;;5017582;28;20453;-76
2021/05/17 05:45:46;;;;;;;9.83;8.07;;;13.10;74.40;;;;;;5026391;28;20443;-76
2021/05/17 05:48:12;;;;;;;9.02;8.13;;;13.10;74.40;;;;;;5027137;28;20044;-76
2021/05/17 05:50:38;;;;;;;8.23;7.43;;;13.20;74.30;;;;;;5023213;28;20120;-76
2021/05/17 05:53:05;;;;;;;9.63;8.63;;;13.20;74.20;;;;;;5021589;28;21522;-76
2021/05/17 05:55:31;;;;;;;9.53;8.60;;;13.20;74.10;;;;;;5025322;28;20512;-76
2021/05/17 05:57:57;;;;;;;10.53;9.43;;;13.20;74.00;;;;;;5017607;28;20018;-76
2021/05/17 06:00:29;;;;;;;10.57;8.40;;;13.20;74.00;;;;;;5021970;28;20440;-76
2021/05/17 06:02:56;;;;;;;9.57;7.78;;;13.10;73.90;;;;;;5019141;28;20057;-78
2021/05/17 06:05:22;;;;;;;9.47;8.03;;;13.10;74.00;;;;;;5018682;28;20023;-76
2021/05/17 06:07:48;;;;;;;8.20;7.40;;;13.20;73.90;;;;;;5029843;28;20033;-76
2021/05/17 06:10:14;;;;;;;9.67;7.90;;;13.20;73.80;;;;;;5021331;28;20038;-76
2021/05/17 06:12:40;;;;;;;8.50;7.60;;;13.20;73.70;;;;;;5025799;28;20029;-76
2021/05/17 06:15:10;;;;;;;10.27;7.00;;;13.20;73.80;;;;;;5026682;28;20097;-76
2021/05/17 06:17:36;;;;;;;7.03;6.17;;;13.20;73.50;;;;;;5025638;28;20037;-76
2021/05/17 06:20:03;;;;;;;7.80;7.00;;;13.30;73.40;;;;;;5015065;28;20466;-76
2021/05/17 06:22:30;;;;;;;12.00;6.63;;;13.30;73.30;;;;;;5021866;28;20478;-77
2021/05/17 06:24:57;;;;;;;5.90;5.27;;;13.30;73.80;;;;;;5028304;28;20254;-77
2021/05/17 06:27:24;;;;;;;6.73;6.03;;;13.40;73.20;;;;;;5025708;28;20097;-76
2021/05/17 06:29:55;;;;;;;10.40;6.20;;;13.40;73.10;;;;;;5020464;28;20029;-77
2021/05/17 06:32:22;;;;;;;7.10;6.40;;;13.40;73.10;;;;;;5028299;28;20391;-77
2021/05/17 06:34:49;;;;;;;8.23;6.70;;;13.40;73.10;;;;;;5020632;28;20034;-77
2021/05/17 06:37:15;;;;;;;7.90;6.87;;;13.40;72.90;;;;;;5019629;28;20030;-76
2021/05/17 06:39:41;;;;;;;8.47;6.60;;;13.30;72.80;;;;;;5014754;28;20033;-76
2021/05/17 06:42:07;;;;;;;8.20;6.87;;;13.30;72.80;;;;;;5023160;28;20467;-77
2021/05/17 06:44:34;;;;;;;7.97;6.43;;;13.40;72.90;;;;;;5025904;28;20490;-77
2021/05/17 06:47:01;;;;;;;6.20;5.60;;;13.50;72.90;;;;;;5028030;28;20033;-77
2021/05/17 06:49:29;;;;;;;8.33;5.20;;;13.60;72.90;;;;;;5024103;28;20485;-77
2021/05/17 06:51:55;;;;;;;6.60;4.33;;;13.60;72.90;;;;;;5033243;28;20029;-76
2021/05/17 06:54:23;;;;;;;4.63;4.10;;;13.70;73.20;;;;;;5029794;28;20037;-76
2021/05/17 06:56:57;;;;;;;7.70;4.87;;;13.80;72.90;;;;;;5031245;28;20057;-76
2021/05/17 06:59:24;;;;;;;5.13;3.90;;;13.90;72.80;;;;;;5032315;28;20036;-77
2021/05/17 07:01:52;;;;;;;5.90;4.50;;;14.00;72.30;;;;;;5027125;28;20113;-77
2021/05/17 07:04:19;;;;;;;5.23;3.70;;;14.00;72.20;;;;;;5041206;28;20037;-77
2021/05/17 07:06:59;;;;;;;6.10;3.60;;;14.00;72.00;;;;;;5034877;28;20033;-77
2021/05/17 07:12:11;;;;;;;7.50;4.03;;;14.20;71.50;;;;;;5025673;28;20064;-77
2021/05/17 07:14:38;;;;;;;14.50;5.27;;;14.20;71.30;;;;;;5031871;28;20116;-77
2021/05/17 07:17:03;;;;;;;6.73;3.70;;;14.30;71.00;;;;;;5027891;28;20026;-77
2021/05/17 07:19:29;;;;;;;6.67;3.73;;;14.30;70.40;;;;;;5024479;28;20454;-78
2021/05/17 07:24:39;;;;;;;4.10;3.50;;;14.10;70.30;;;;;;5024595;28;20052;-78
2021/05/17 07:27:06;;;;;;;4.57;3.43;;;14.30;70.40;;;;;;5028468;28;20029;-77
2021/05/17 07:29:34;;;;;;;4.53;3.33;;;14.40;70.20;;;;;;5029954;28;20441;-77
2021/05/17 07:32:00;;;;;;;4.70;2.83;;;14.40;69.40;;;;;;5027071;28;20112;-77
2021/05/17 07:34:28;;;;;;;4.53;3.30;;;14.40;69.30;;;;;;5024338;28;20037;-77
2021/05/17 07:37:16;;;;;;;3.47;3.13;;;14.60;69.30;;;;;;5028623;28;20060;-76
2021/05/17 07:39:41;;;;;;;5.87;3.43;;;14.70;69.30;;;;;;5023789;28;20021;-77
2021/05/17 07:42:07;;;;;;;9.03;3.37;;;14.80;69.20;;;;;;5025733;28;20048;-77
2021/05/17 07:44:33;;;;;;;9.57;3.50;;;14.90;68.70;;;;;;5018734;28;20045;-77
2021/05/17 07:47:00;;;;;;;3.67;3.10;;;14.90;68.60;;;;;;5027145;28;22735;-77
2021/05/17 07:49:59;;;;;;;4.53;3.17;;;15.00;68.50;;;;;;5025008;28;20026;-77
2021/05/17 07:52:18;;;;;;;4.25;2.80;;;15.10;68.50;;;;;;5020805;28;20079;-77
2021/05/17 07:54:53;;;;;;;4.40;2.90;;;15.20;68.30;;;;;;5027305;28;20076;-77
2021/05/17 07:57:19;;;;;;;4.93;3.10;;;15.20;68.10;;;;;;5026297;28;20072;-77
2021/05/17 07:59:45;;;;;;;3.80;2.60;;;15.30;68.10;;;;;;5025520;28;20052;-78
2021/05/17 08:02:11;;;;;;;5.07;3.00;;;15.20;67.70;;;;;;5025690;28;20106;-78
2021/05/17 08:04:36;;;;;;;3.85;2.70;;;15.30;67.40;;;;;;5028633;28;20545;-77
2021/05/17 08:07:05;;;;;;;3.63;2.80;;;15.10;67.50;;;;;;5027428;28;20160;-77
2021/05/17 08:09:32;;;;;;;2.67;2.38;;;15.20;67.80;;;;;;5028200;28;20025;-77
2021/05/17 08:11:57;;;;;;;4.43;1.95;;;15.30;67.50;;;;;;5024901;28;20064;-77
2021/05/17 08:14:23;;;;;;;6.00;2.20;;;15.50;67.10;;;;;;5023428;28;20498;-77
2021/05/17 08:16:49;;;;;;;1.40;1.30;;;15.60;67.00;;;;;;5023115;28;20022;-77
2021/05/17 08:19:15;;;;;;;2.33;1.70;;;15.70;66.90;;;;;;5028138;28;20026;-77
2021/05/17 08:21:41;;;;;;;4.65;1.45;;;15.80;66.30;;;;;;5028907;28;20052;-77
2021/05/17 08:24:07;;;;;;;2.97;1.65;;;15.80;65.60;;;;;;5030515;28;20104;-77
2021/05/17 08:26:33;;;;;;;3.60;1.50;;;15.80;65.10;;;;;;5025499;28;20513;-77
2021/05/17 08:28:58;;;;;;;5.20;1.63;;;15.80;64.80;;;;;;5021505;28;20029;-77
2021/05/17 08:31:25;;;;;;;3.65;1.70;;;15.70;64.90;;;;;;5025876;28;20041;-77
2021/05/17 08:33:51;;;;;;;5.70;2.08;;;15.70;64.70;;;;;;5013404;28;20909;-77
2021/05/17 08:36:18;;;;;;;2.90;1.63;;;15.60;64.80;;;;;;5022671;28;20026;-77
2021/05/17 08:38:44;;;;;;;1.80;1.30;;;15.70;64.60;;;;;;5028170;28;20022;-77
2021/05/17 08:41:13;;;;;;;10.90;2.00;;;15.70;64.50;;;;;;5031139;28;20018;-77
2021/05/17 08:43:41;;;;;;;4.03;2.22;;;15.70;64.80;;;;;;5030906;28;20092;-77
2021/05/17 08:46:09;;;;;;;5.97;2.85;;;15.70;65.10;;;;;;5023186;28;20374;-77
2021/05/17 08:48:47;;;;;;;4.53;2.25;;;15.70;65.20;;;;;;5023328;28;20021;-77
2021/05/17 08:51:21;;;;;;;5.00;1.58;;;15.80;65.60;;;;;;5020790;28;20065;-77
2021/05/17 08:53:49;;;;;;;2.75;1.20;;;15.90;65.30;;;;;;5031415;28;20034;-77
2021/05/17 08:56:16;;;;;;;2.25;1.20;;;15.80;64.40;;;;;;5029763;28;20020;-77
2021/05/17 08:58:41;;;;;;;4.38;1.33;;;15.70;64.40;;;;;;5023849;28;20021;-77
2021/05/17 09:01:07;;;;;;;4.53;1.48;;;15.70;64.50;;;;;;5020084;28;20033;-77
2021/05/17 09:03:33;;;;;;;3.40;1.50;;;15.60;64.70;;;;;;5031579;28;20025;-78
2021/05/17 09:06:07;;;;;;;3.85;1.98;;;15.60;64.70;;;;;;5022127;28;20033;-77
2021/05/17 09:08:42;;;;;;;2.83;1.80;;;15.40;64.30;;;;;;5024422;28;20032;-76
2021/05/17 09:11:08;;;;;;;3.00;1.20;;;15.20;64.40;;;;;;5021598;28;20036;-77
2021/05/17 09:13:34;;;;;;;3.73;1.20;;;15.10;63.80;;;;;;5023835;28;20510;-77
2021/05/17 09:16:00;;;;;;;1.70;0.53;;;14.80;63.60;;;;;;5024064;28;20147;-77
2021/05/17 09:18:29;;;;;;;2.47;1.63;;;14.50;63.30;;;;;;5028517;28;20030;-78
2021/05/17 09:20:58;;;;;;;2.33;1.60;;;14.40;63.80;;;;;;5028540;28;20021;-77
2021/05/17 09:23:27;;;;;;;4.80;1.93;;;14.40;63.90;;;;;;5019948;28;20033;-77
2021/05/17 09:26:17;;;;;;;1.17;0.70;;;14.80;63.80;;;;;;5024855;28;20041;-77
2021/05/17 09:28:45;;;;;;;0.90;0.50;;;14.90;63.70;;;;;;5026928;28;20022;-77
2021/05/17 09:31:22;;;;;;;1.53;0.53;;;15.20;63.30;;;;;;5013762;28;21006;-77
2021/05/17 09:33:49;;;;;;;0.38;0.30;;;15.60;62.60;;;;;;5025019;28;20034;-77
2021/05/17 09:36:30;;;;;;;3.17;0.93;;;15.70;61.80;;;;;;5016002;28;20064;-77
2021/05/17 09:39:06;;;;;;;3.67;0.57;;;16.10;61.00;;;;;;5012257;28;20026;-77
2021/05/17 09:41:56;;;;;;;1.27;0.38;;;16.40;59.80;;;;;;5010893;28;20022;-77
2021/05/17 09:44:24;;;;;;;1.15;0.50;;;16.60;58.60;;;;;;5013106;28;20403;-77
2021/05/17 09:46:55;;;;;;;0.35;0.30;;;16.70;58.50;;;;;;5029672;28;20075;-77
2021/05/17 09:49:33;;;;;;;1.90;0.50;;;16.90;57.90;;;;;;5029008;28;20033;-77
2021/05/17 09:52:07;;;;;;;2.88;0.30;;;17.00;57.20;;;;;;5030686;28;20120;-77
2021/05/17 09:54:47;;;;;;;0.28;0.25;;;16.90;57.70;;;;;;5030022;28;20025;-77
2021/05/17 09:57:16;;;;;;;4.40;0.70;;;16.90;57.10;;;;;;5031513;28;20469;-77
2021/05/17 09:59:47;;;;;;;20.02;2.00;;;16.80;56.60;;;;;;5023666;28;20026;-77
2021/05/17 10:02:35;;;;;;;2.08;0.50;;;16.90;56.80;;;;;;5044983;28;20060;-76
2021/05/17 10:05:21;;;;;;;2.45;0.60;;;16.90;56.10;;;;;;5042508;28;20029;-77
2021/05/17 10:08:13;;;;;;;1.63;0.95;;;16.60;55.10;;;;;;5027697;28;20105;-77
2021/05/17 10:10:39;;;;;;;0.87;0.30;;;16.30;55.60;;;;;;5012841;28;20608;-77
2021/05/17 10:13:06;;;;;;;1.27;0.40;;;16.30;55.90;;;;;;5030192;28;20292;-77
2021/05/17 10:15:34;;;;;;;0.90;0.20;;;16.20;56.00;;;;;;5030074;28;20121;-77
2021/05/17 10:18:00;;;;;;;0.50;0.35;;;16.20;55.90;;;;;;5029490;28;20064;-77
2021/05/17 10:20:27;;;;;;;1.23;0.80;;;16.20;56.10;;;;;;5033658;28;20029;-77
2021/05/17 10:22:55;;;;;;;6.35;1.08;;;16.20;55.90;;;;;;5034604;28;20033;-77
2021/05/17 10:25:30;;;;;;;3.45;0.77;;;16.10;56.40;;;;;;5035856;28;20017;-77
2021/05/17 10:28:18;;;;;;;2.33;0.30;;;16.10;56.80;;;;;;5035796;28;20032;-77
2021/05/17 10:30:44;;;;;;;3.00;0.28;;;16.10;56.10;;;;;;5019965;28;20556;-77
2021/05/17 10:33:19;;;;;;;1.80;0.52;;;15.80;55.60;;;;;;5025278;28;20720;-77
2021/05/17 10:35:44;;;;;;;7.22;0.45;;;15.60;54.20;;;;;;5049201;28;20482;-77
2021/05/17 10:38:23;;;;;;;2.00;0.50;;;15.40;54.40;;;;;;5032071;28;20033;-77
2021/05/17 10:41:17;;;;;;;3.53;0.40;;;15.30;54.80;;;;;;5031969;28;20026;-77
2021/05/17 10:44:04;;;;;;;0.63;0.20;;;15.40;55.50;;;;;;5019693;28;20037;-77
2021/05/17 10:46:37;;;;;;;3.27;0.90;;;15.20;56.80;;;;;;5023567;28;20120;-77
2021/05/17 10:49:38;;;;;;;4.03;0.37;;;15.20;57.50;;;;;;5030562;28;20091;-77
2021/05/17 10:52:04;;;;;;;0.20;0.10;;;15.30;58.00;;;;;;5006743;28;20272;-77
2021/05/17 10:54:35;;;;;;;0.73;0.40;;;15.20;57.50;;;;;;5023598;28;20207;-77
2021/05/17 10:57:05;;;;;;;3.03;0.20;;;15.20;57.90;;;;;;5026149;28;20033;-76
2021/05/17 11:02:20;;;;;;;3.58;0.40;;;15.30;58.70;;;;;;5034976;28;20203;-77
2021/05/17 11:04:49;;;;;;;0.80;0.30;;;15.30;59.30;;;;;;5033450;28;20029;-77
2021/05/17 11:07:29;;;;;;;1.52;0.40;;;15.40;59.70;;;;;;5033299;28;20029;-76
2021/05/17 11:10:21;;;;;;;2.45;0.30;;;15.50;59.90;;;;;;5028663;28;20040;-77
2021/05/17 11:12:57;;;;;;;0.70;0.40;;;15.80;59.50;;;;;;5027309;28;20060;-77
2021/05/17 11:15:40;;;;;;;0.93;0.30;;;16.00;58.60;;;;;;5032641;28;20029;-77
2021/05/17 11:18:06;;;;;;;4.57;0.40;;;16.00;58.70;;;;;;5023464;28;20048;-77
2021/05/17 11:20:41;;;;;;;1.20;0.40;;;16.30;58.40;;;;;;5030798;28;20021;-77
2021/05/17 11:23:13;;;;;;;1.63;0.70;;;16.50;58.20;;;;;;5024013;28;20563;-77
2021/05/17 11:26:00;;;;;;;3.63;1.35;;;16.60;58.20;;;;;;5031873;28;20085;-77
2021/05/17 11:28:43;;;;;;;2.38;1.02;;;16.90;59.10;;;;;;5029605;28;20021;-77
2021/05/17 11:31:15;;;;;;;1.70;0.90;;;17.00;58.40;;;;;;5031123;28;20453;-77
2021/05/17 11:33:53;;;;;;;1.50;0.75;;;17.10;57.60;;;;;;5032715;28;20037;-77
2021/05/17 11:36:19;;;;;;;1.60;0.80;;;17.20;57.50;;;;;;5028533;28;20041;-78
2021/05/17 11:39:04;;;;;;;1.15;0.65;;;17.30;57.00;;;;;;5019908;28;20108;-79
2021/05/17 11:41:32;;;;;;;3.00;0.30;;;17.50;56.00;;;;;;5032756;28;20459;-77
2021/05/17 11:44:23;;;;;;;0.43;0.22;;;17.50;54.70;;;;;;5032659;28;20033;-77
2021/05/17 11:46:54;;;;;;;1.05;0.40;;;17.50;52.80;;;;;;5022647;28;20120;-78
2021/05/17 11:49:21;;;;;;;2.65;0.47;;;17.40;52.70;;;;;;5031827;28;20031;-77
2021/05/17 11:51:52;;;;;;;2.30;0.70;;;17.70;52.80;;;;;;5031821;28;20110;-78
2021/05/17 11:54:19;;;;;;;4.57;0.47;;;17.90;52.30;;;;;;5025337;28;20022;-77
2021/05/17 11:57:00;;;;;;;0.60;0.10;;;17.70;52.00;;;;;;5027860;28;20399;-77
2021/05/17 11:59:28;;;;;;;2.58;0.20;;;17.60;51.40;;;;;;5030727;28;20088;-77
2021/05/17 12:01:56;;;;;;;1.02;0.20;;;17.30;50.80;;;;;;5016396;28;20104;-78
2021/05/17 12:04:25;;;;;;;3.05;0.30;;;17.10;50.40;;;;;;5031886;28;20466;-77
2021/05/17 12:06:56;;;;;;;0.52;0.22;;;16.90;50.40;;;;;;5031990;28;20034;-77
2021/05/17 12:09:34;;;;;;;0.95;0.25;;;16.80;51.20;;;;;;5030739;28;20354;-78
2021/05/17 12:12:14;;;;;;;1.70;0.60;;;16.90;51.90;;;;;;5015310;28;20069;-79
2021/05/17 12:14:48;;;;;;;3.15;1.10;;;17.10;52.40;;;;;;5029415;28;20653;-77
2021/05/17 12:17:24;;;;;;;3.85;1.02;;;17.40;51.80;;;;;;5029009;28;20036;-77
2021/05/17 12:19:58;;;;;;;6.20;1.40;;;17.50;51.80;;;;;;5026072;28;20079;-76
2021/05/17 12:22:25;;;;;;;3.22;1.75;;;17.70;51.70;;;;;;5021442;28;20028;-77
2021/05/17 12:24:55;;;;;;;6.05;2.30;;;18.00;52.00;;;;;;5031201;28;20035;-78
2021/05/17 12:27:21;;;;;;;5.00;2.35;;;18.00;50.80;;;;;;5031295;28;20029;-77
2021/05/17 12:29:56;;;;;;;2.17;1.42;;;18.00;50.60;;;;;;5032810;28;20375;-77
2021/05/17 12:32:36;;;;;;;2.58;1.00;;;18.00;51.00;;;;;;5032222;28;20052;-77
2021/05/17 12:35:06;;;;;;;2.45;0.95;;;18.20;52.10;;;;;;5027793;28;20387;-77
2021/05/17 12:37:34;;;;;;;6.38;0.98;;;18.30;51.50;;;;;;5028302;28;20037;-76
2021/05/17 12:40:15;;;;;;;1.33;0.40;;;18.30;50.60;;;;;;5027079;28;20067;-77
2021/05/17 12:42:42;;;;;;;0.30;0.20;;;18.40;49.00;;;;;;5013825;28;20479;-77
2021/05/17 12:45:14;;;;;;;0.50;0.40;;;18.40;48.60;;;;;;5013670;28;20029;-77
2021/05/17 12:47:45;;;;;;;0.88;0.63;;;18.50;48.00;;;;;;5026096;28;20029;-77
2021/05/17 12:50:21;;;;;;;3.40;0.40;;;18.70;46.90;;;;;;5026174;28;20033;-77
2021/05/17 12:52:49;;;;;;;0.73;0.25;;;18.70;46.30;;;;;;5028684;28;20109;-76
2021/05/17 12:55:23;;;;;;;0.57;0.40;;;18.80;46.50;;;;;;5031525;28;20113;-77
2021/05/17 12:57:59;;;;;;;0.68;0.20;;;19.00;46.20;;;;;;5030996;28;20029;-76
2021/05/17 13:00:45;;;;;;;0.55;0.30;;;19.00;45.40;;;;;;5032794;28;20017;-77
2021/05/17 13:03:25;;;;;;;0.20;0.13;;;19.20;45.40;;;;;;5031505;28;20049;-77
2021/05/17 13:06:26;;;;;;;1.13;0.20;;;19.30;44.30;;;;;;5028618;28;20053;-76
2021/05/17 13:08:57;;;;;;;1.45;0.20;;;19.30;43.70;;;;;;5029284;28;20057;-77
2021/05/17 13:11:31;;;;;;;0.20;0.20;;;19.30;43.30;;;;;;5030619;28;20059;-77
2021/05/17 13:14:18;;;;;;;2.63;0.20;;;19.20;42.90;;;;;;5031861;28;20033;-77
2021/05/17 13:16:50;;;;;;;0.95;0.15;;;19.20;42.90;;;;;;5027009;28;20026;-77
2021/05/17 13:30:41;;;;;;;0.70;0.40;;;19.30;42.00;;;;;;5041675;28;20048;-76